sensor_id;sensor_type;location;lat;lon;timestamp;P1;durP1;ratioP1;P2;durP2;ratioP2
21213;SDS011;10764;50.850;2.904;2023-01-09T13:10:28;5.63;;;1.17;;
21213;SDS011;10764;50.850;2.904;2023-01-09T13:12:59;4.55;;;1.05;;
21213;SDS011;10764;50.850;2.904;2023-01-09T13:15:38;5.47;;;1.10;;
21213;SDS011;10764;50.850;2.904;2023-01-09T13:21:10;2.35;;;0.80;;
21213;SDS011;10764;50.850;2.904;2023-01-09T13:28:44;5.35;;;0.90;;
21213;SDS011;10764;50.850;2.904;2023-01-09T14:07:32;6.57;;;0.90;;
21213;SDS011;10764;50.850;2.904;2023-01-09T14:10:02;4.72;;;0.90;;
21213;SDS011;10764;50.850;2.904;2023-01-09T14:12:38;8.27;;;0.90;;
21213;SDS011;10764;50.850;2.904;2023-01-09T14:15:19;5.70;;;1.08;;
21213;SDS011;10764;50.850;2.904;2023-01-09T14:17:58;4.30;;;0.90;;
21213;SDS011;10764;50.850;2.904;2023-01-09T14:22:25;1092.60;;;974.80;;
21213;SDS011;10764;50.850;2.904;2023-01-09T14:24:54;1092.60;;;974.78;;
21213;SDS011;10764;50.850;2.904;2023-01-09T14:44:24;1071.45;;;955.78;;
21213;SDS011;10764;50.850;2.904;2023-01-09T14:47:00;1073.28;;;957.08;;
21213;SDS011;10764;50.850;2.904;2023-01-09T14:49:47;1072.38;;;956.15;;
21213;SDS011;10764;50.850;2.904;2023-01-09T14:52:30;1077.72;;;961.03;;
21213;SDS011;10764;50.850;2.904;2023-01-09T14:55:11;1077.30;;;960.80;;
21213;SDS011;10764;50.850;2.904;2023-01-09T14:57:50;1082.40;;;965.53;;
21213;SDS011;10764;50.850;2.904;2023-01-09T15:00:20;1079.03;;;962.40;;
21213;SDS011;10764;50.850;2.904;2023-01-09T15:02:49;1082.50;;;965.45;;
21213;SDS011;10764;50.850;2.904;2023-01-09T15:05:18;1086.25;;;968.97;;
21213;SDS011;10764;50.850;2.904;2023-01-09T15:07:49;1081.88;;;965.10;;
21213;SDS011;10764;50.850;2.904;2023-01-09T15:10:32;1078.25;;;961.85;;
21213;SDS011;10764;50.850;2.904;2023-01-09T15:13:04;1075.63;;;959.00;;
21213;SDS011;10764;50.850;2.904;2023-01-09T15:15:33;1083.88;;;967.03;;
21213;SDS011;10764;50.850;2.904;2023-01-09T15:18:03;1080.50;;;963.80;;
21213;SDS011;10764;50.850;2.904;2023-01-09T15:20:33;1084.70;;;967.38;;
21213;SDS011;10764;50.850;2.904;2023-01-09T15:23:00;1081.45;;;964.70;;
21213;SDS011;10764;50.850;2.904;2023-01-09T15:25:32;1089.82;;;972.03;;
21213;SDS011;10764;50.850;2.904;2023-01-09T15:30:55;1096.10;;;977.95;;
21213;SDS011;10764;50.850;2.904;2023-01-09T15:33:24;1095.40;;;977.35;;
21213;SDS011;10764;50.850;2.904;2023-01-09T15:35:51;1082.90;;;965.90;;
21213;SDS011;10764;50.850;2.904;2023-01-09T15:38:25;1086.03;;;968.63;;
21213;SDS011;10764;50.850;2.904;2023-01-09T15:43:27;1084.43;;;967.20;;
21213;SDS011;10764;50.850;2.904;2023-01-09T15:45:56;1097.00;;;978.70;;
21213;SDS011;10764;50.850;2.904;2023-01-09T15:53:32;1084.53;;;967.17;;
21213;SDS011;10764;50.850;2.904;2023-01-09T15:58:42;1085.53;;;968.00;;
21213;SDS011;10764;50.850;2.904;2023-01-09T16:04:11;1081.82;;;964.83;;
21213;SDS011;10764;50.850;2.904;2023-01-09T16:06:47;1085.50;;;967.65;;
21213;SDS011;10764;50.850;2.904;2023-01-09T16:09:16;1088.20;;;969.95;;
21213;SDS011;10764;50.850;2.904;2023-01-09T16:11:51;1068.65;;;952.95;;
21213;SDS011;10764;50.850;2.904;2023-01-09T16:14:21;1074.60;;;958.00;;
21213;SDS011;10764;50.850;2.904;2023-01-09T16:17:04;1079.75;;;962.78;;
21213;SDS011;10764;50.850;2.904;2023-01-09T16:19:50;1074.05;;;956.60;;
21213;SDS011;10764;50.850;2.904;2023-01-09T16:24:51;1081.00;;;962.70;;
21213;SDS011;10764;50.850;2.904;2023-01-09T16:27:20;1075.95;;;958.55;;
21213;SDS011;10764;50.850;2.904;2023-01-09T16:29:53;1083.80;;;965.20;;
21213;SDS011;10764;50.850;2.904;2023-01-09T16:32:28;1086.47;;;966.80;;
21213;SDS011;10764;50.850;2.904;2023-01-09T16:35:14;1090.80;;;970.70;;
21213;SDS011;10764;50.850;2.904;2023-01-09T16:37:45;1087.97;;;968.22;;
21213;SDS011;10764;50.850;2.904;2023-01-09T16:42:39;1091.75;;;971.38;;
21213;SDS011;10764;50.850;2.904;2023-01-09T16:48:19;1099.07;;;977.07;;
21213;SDS011;10764;50.850;2.904;2023-01-09T16:50:46;1116.30;;;983.75;;
21213;SDS011;10764;50.850;2.904;2023-01-09T16:55:42;1125.47;;;982.50;;
21213;SDS011;10764;50.850;2.904;2023-01-09T16:58:13;1166.32;;;999.90;;
21213;SDS011;10764;50.850;2.904;2023-01-09T17:00:44;1119.70;;;981.95;;
21213;SDS011;10764;50.850;2.904;2023-01-09T17:03:13;1103.10;;;977.05;;
21213;SDS011;10764;50.850;2.904;2023-01-09T17:05:40;1142.50;;;992.03;;
21213;SDS011;10764;50.850;2.904;2023-01-09T17:10:44;1135.70;;;989.45;;
21213;SDS011;10764;50.850;2.904;2023-01-09T17:13:11;1166.95;;;998.40;;
21213;SDS011;10764;50.850;2.904;2023-01-09T17:15:37;1111.43;;;985.22;;
21213;SDS011;10764;50.850;2.904;2023-01-09T17:18:08;1090.32;;;970.63;;
21213;SDS011;10764;50.850;2.904;2023-01-09T17:20:46;1094.72;;;963.75;;
21213;SDS011;10764;50.850;2.904;2023-01-09T17:23:15;1192.00;;;999.90;;
21213;SDS011;10764;50.850;2.904;2023-01-09T17:25:42;1117.15;;;981.72;;
21213;SDS011;10764;50.850;2.904;2023-01-09T17:28:28;1221.50;;;999.90;;
21213;SDS011;10764;50.850;2.904;2023-01-09T17:33:25;1220.40;;;999.90;;
21213;SDS011;10764;50.850;2.904;2023-01-09T17:35:53;1199.03;;;999.90;;
21213;SDS011;10764;50.850;2.904;2023-01-09T17:38:20;1225.57;;;999.90;;
21213;SDS011;10764;50.850;2.904;2023-01-09T17:40:48;1284.57;;;999.90;;
21213;SDS011;10764;50.850;2.904;2023-01-09T17:43:15;1216.90;;;999.90;;
21213;SDS011;10764;50.850;2.904;2023-01-09T17:45:43;1205.43;;;999.90;;
21213;SDS011;10764;50.850;2.904;2023-01-09T17:48:14;1298.95;;;999.90;;
21213;SDS011;10764;50.850;2.904;2023-01-09T17:50:43;1271.37;;;999.90;;
21213;SDS011;10764;50.850;2.904;2023-01-09T17:53:11;1271.03;;;999.90;;
21213;SDS011;10764;50.850;2.904;2023-01-09T17:55:44;1249.90;;;999.90;;
21213;SDS011;10764;50.850;2.904;2023-01-09T17:58:17;1334.07;;;999.90;;
21213;SDS011;10764;50.850;2.904;2023-01-09T18:00:50;1244.90;;;999.90;;
21213;SDS011;10764;50.850;2.904;2023-01-09T18:03:17;1345.13;;;999.90;;
21213;SDS011;10764;50.850;2.904;2023-01-09T18:05:48;1218.88;;;999.90;;
21213;SDS011;10764;50.850;2.904;2023-01-09T18:08:15;1216.10;;;999.90;;
21213;SDS011;10764;50.850;2.904;2023-01-09T18:10:43;1280.95;;;999.90;;
21213;SDS011;10764;50.850;2.904;2023-01-09T18:13:14;1289.63;;;999.90;;
21213;SDS011;10764;50.850;2.904;2023-01-09T18:15:42;1077.97;;;962.75;;
21213;SDS011;10764;50.850;2.904;2023-01-09T18:18:10;907.90;;;429.48;;
21213;SDS011;10764;50.850;2.904;2023-01-09T18:20:38;1292.40;;;999.90;;
21213;SDS011;10764;50.850;2.904;2023-01-09T18:23:06;921.22;;;471.67;;
21213;SDS011;10764;50.850;2.904;2023-01-09T18:25:33;883.55;;;395.08;;
21213;SDS011;10764;50.850;2.904;2023-01-09T18:28:03;896.17;;;413.00;;
21213;SDS011;10764;50.850;2.904;2023-01-09T18:30:30;1146.57;;;999.90;;
21213;SDS011;10764;50.850;2.904;2023-01-09T18:32:57;887.83;;;395.90;;
21213;SDS011;10764;50.850;2.904;2023-01-09T18:35:24;901.80;;;415.83;;
21213;SDS011;10764;50.850;2.904;2023-01-09T18:37:51;985.67;;;797.27;;
21213;SDS011;10764;50.850;2.904;2023-01-09T18:40:18;890.17;;;405.08;;
21213;SDS011;10764;50.850;2.904;2023-01-09T18:42:45;930.28;;;527.78;;
21213;SDS011;10764;50.850;2.904;2023-01-09T18:45:13;850.80;;;413.63;;
21213;SDS011;10764;50.850;2.904;2023-01-09T18:47:40;874.87;;;415.93;;
21213;SDS011;10764;50.850;2.904;2023-01-09T18:50:08;863.27;;;426.37;;
21213;SDS011;10764;50.850;2.904;2023-01-09T18:52:35;833.78;;;461.75;;
21213;SDS011;10764;50.850;2.904;2023-01-09T18:55:02;821.10;;;471.88;;
21213;SDS011;10764;50.850;2.904;2023-01-09T18:57:29;821.65;;;459.52;;
21213;SDS011;10764;50.850;2.904;2023-01-09T18:59:56;800.35;;;463.88;;
21213;SDS011;10764;50.850;2.904;2023-01-09T19:02:24;825.75;;;467.95;;
21213;SDS011;10764;50.850;2.904;2023-01-09T19:04:52;835.03;;;442.65;;
21213;SDS011;10764;50.850;2.904;2023-01-09T19:07:19;822.70;;;459.73;;
21213;SDS011;10764;50.850;2.904;2023-01-09T19:09:45;810.88;;;471.42;;
21213;SDS011;10764;50.850;2.904;2023-01-09T19:12:12;800.42;;;475.17;;
21213;SDS011;10764;50.850;2.904;2023-01-09T19:14:39;802.15;;;477.38;;
21213;SDS011;10764;50.850;2.904;2023-01-09T19:17:06;791.30;;;462.83;;
21213;SDS011;10764;50.850;2.904;2023-01-09T19:19:33;810.03;;;462.73;;
21213;SDS011;10764;50.850;2.904;2023-01-09T19:22:00;793.88;;;462.42;;
21213;SDS011;10764;50.850;2.904;2023-01-09T19:24:26;796.70;;;469.90;;
21213;SDS011;10764;50.850;2.904;2023-01-09T19:26:53;796.28;;;467.08;;
21213;SDS011;10764;50.850;2.904;2023-01-09T19:29:20;817.10;;;459.00;;
21213;SDS011;10764;50.850;2.904;2023-01-09T19:31:47;815.67;;;476.13;;
21213;SDS011;10764;50.850;2.904;2023-01-09T19:34:14;800.97;;;469.42;;
21213;SDS011;10764;50.850;2.904;2023-01-09T19:36:43;797.80;;;468.95;;
21213;SDS011;10764;50.850;2.904;2023-01-09T19:39:12;825.50;;;434.83;;
21213;SDS011;10764;50.850;2.904;2023-01-09T19:41:40;811.75;;;473.17;;
21213;SDS011;10764;50.850;2.904;2023-01-09T19:44:07;817.35;;;472.98;;
21213;SDS011;10764;50.850;2.904;2023-01-09T19:46:36;832.07;;;458.73;;
21213;SDS011;10764;50.850;2.904;2023-01-09T19:49:04;853.20;;;429.08;;
21213;SDS011;10764;50.850;2.904;2023-01-09T19:51:31;830.42;;;461.95;;
21213;SDS011;10764;50.850;2.904;2023-01-09T19:53:59;831.65;;;482.08;;
21213;SDS011;10764;50.850;2.904;2023-01-09T19:56:26;821.00;;;487.45;;
21213;SDS011;10764;50.850;2.904;2023-01-09T19:59:00;854.67;;;432.80;;
21213;SDS011;10764;50.850;2.904;2023-01-09T20:01:29;861.08;;;431.48;;
21213;SDS011;10764;50.850;2.904;2023-01-09T20:03:58;822.33;;;485.88;;
21213;SDS011;10764;50.850;2.904;2023-01-09T20:06:30;802.10;;;487.27;;
21213;SDS011;10764;50.850;2.904;2023-01-09T20:08:58;823.92;;;473.38;;
21213;SDS011;10764;50.850;2.904;2023-01-09T20:11:28;817.35;;;460.85;;
21213;SDS011;10764;50.850;2.904;2023-01-09T20:13:56;825.35;;;460.85;;
21213;SDS011;10764;50.850;2.904;2023-01-09T20:16:25;825.80;;;450.08;;
21213;SDS011;10764;50.850;2.904;2023-01-09T20:18:54;857.20;;;448.58;;
21213;SDS011;10764;50.850;2.904;2023-01-09T20:21:23;828.60;;;455.63;;
21213;SDS011;10764;50.850;2.904;2023-01-09T20:23:52;851.97;;;412.03;;
21213;SDS011;10764;50.850;2.904;2023-01-09T20:26:21;835.78;;;466.05;;
21213;SDS011;10764;50.850;2.904;2023-01-09T20:28:50;831.92;;;449.45;;
21213;SDS011;10764;50.850;2.904;2023-01-09T20:31:18;839.17;;;430.73;;
21213;SDS011;10764;50.850;2.904;2023-01-09T20:33:47;847.15;;;420.30;;
21213;SDS011;10764;50.850;2.904;2023-01-09T20:36:16;846.22;;;432.00;;
21213;SDS011;10764;50.850;2.904;2023-01-09T20:38:46;854.63;;;436.90;;
21213;SDS011;10764;50.850;2.904;2023-01-09T20:41:14;866.33;;;399.85;;
21213;SDS011;10764;50.850;2.904;2023-01-09T20:43:55;847.30;;;435.17;;
21213;SDS011;10764;50.850;2.904;2023-01-09T20:46:29;860.13;;;414.00;;
21213;SDS011;10764;50.850;2.904;2023-01-09T20:48:59;860.63;;;435.38;;
21213;SDS011;10764;50.850;2.904;2023-01-09T20:51:39;881.63;;;407.25;;
21213;SDS011;10764;50.850;2.904;2023-01-09T20:54:08;875.80;;;407.73;;
21213;SDS011;10764;50.850;2.904;2023-01-09T20:56:34;867.77;;;418.07;;
21213;SDS011;10764;50.850;2.904;2023-01-09T20:59:02;878.35;;;413.20;;
21213;SDS011;10764;50.850;2.904;2023-01-09T21:01:31;863.38;;;417.50;;
21213;SDS011;10764;50.850;2.904;2023-01-09T21:03:59;872.13;;;419.73;;
21213;SDS011;10764;50.850;2.904;2023-01-09T21:06:26;866.70;;;422.60;;
21213;SDS011;10764;50.850;2.904;2023-01-09T21:08:53;904.67;;;422.30;;
21213;SDS011;10764;50.850;2.904;2023-01-09T21:11:20;917.58;;;446.40;;
21213;SDS011;10764;50.850;2.904;2023-01-09T21:13:48;898.90;;;413.87;;
21213;SDS011;10764;50.850;2.904;2023-01-09T21:16:16;898.78;;;411.58;;
21213;SDS011;10764;50.850;2.904;2023-01-09T21:18:49;883.53;;;421.43;;
21213;SDS011;10764;50.850;2.904;2023-01-09T21:21:18;873.85;;;407.25;;
21213;SDS011;10764;50.850;2.904;2023-01-09T21:23:48;878.95;;;403.40;;
21213;SDS011;10764;50.850;2.904;2023-01-09T21:26:17;887.87;;;411.87;;
21213;SDS011;10764;50.850;2.904;2023-01-09T21:28:48;888.92;;;414.85;;
21213;SDS011;10764;50.850;2.904;2023-01-09T21:31:17;891.05;;;409.27;;
21213;SDS011;10764;50.850;2.904;2023-01-09T21:33:46;881.80;;;420.63;;
21213;SDS011;10764;50.850;2.904;2023-01-09T21:36:13;878.77;;;415.93;;
21213;SDS011;10764;50.850;2.904;2023-01-09T21:38:42;899.13;;;419.00;;
21213;SDS011;10764;50.850;2.904;2023-01-09T21:41:08;1010.10;;;851.10;;
21213;SDS011;10764;50.850;2.904;2023-01-09T21:43:54;943.45;;;553.78;;
21213;SDS011;10764;50.850;2.904;2023-01-09T21:46:40;919.88;;;445.63;;
21213;SDS011;10764;50.850;2.904;2023-01-09T21:49:23;916.75;;;453.08;;
21213;SDS011;10764;50.850;2.904;2023-01-09T21:51:52;926.75;;;473.52;;
21213;SDS011;10764;50.850;2.904;2023-01-09T21:54:19;900.22;;;419.10;;
21213;SDS011;10764;50.850;2.904;2023-01-09T21:56:48;900.05;;;412.73;;
21213;SDS011;10764;50.850;2.904;2023-01-09T21:59:16;923.13;;;458.98;;
21213;SDS011;10764;50.850;2.904;2023-01-09T22:01:43;967.95;;;668.42;;
21213;SDS011;10764;50.850;2.904;2023-01-09T22:04:11;919.65;;;450.27;;
21213;SDS011;10764;50.850;2.904;2023-01-09T22:06:39;964.67;;;631.85;;
21213;SDS011;10764;50.850;2.904;2023-01-09T22:09:06;970.30;;;658.83;;
21213;SDS011;10764;50.850;2.904;2023-01-09T22:11:33;963.65;;;625.22;;
21213;SDS011;10764;50.850;2.904;2023-01-09T22:14:00;945.50;;;549.63;;
21213;SDS011;10764;50.850;2.904;2023-01-09T22:16:26;955.50;;;596.67;;
21213;SDS011;10764;50.850;2.904;2023-01-09T22:18:54;939.25;;;507.38;;
21213;SDS011;10764;50.850;2.904;2023-01-09T22:21:22;968.75;;;661.05;;
21213;SDS011;10764;50.850;2.904;2023-01-09T22:23:50;942.28;;;528.45;;
21213;SDS011;10764;50.850;2.904;2023-01-09T22:26:17;920.33;;;447.73;;
21213;SDS011;10764;50.850;2.904;2023-01-09T22:28:44;1135.40;;;999.90;;
21213;SDS011;10764;50.850;2.904;2023-01-09T22:31:14;936.00;;;499.27;;
21213;SDS011;10764;50.850;2.904;2023-01-09T22:33:52;915.28;;;433.63;;
21213;SDS011;10764;50.850;2.904;2023-01-09T22:36:20;931.87;;;487.03;;
21213;SDS011;10764;50.850;2.904;2023-01-09T22:38:47;924.03;;;458.67;;
21213;SDS011;10764;50.850;2.904;2023-01-09T22:41:14;939.55;;;501.17;;
21213;SDS011;10764;50.850;2.904;2023-01-09T22:43:40;927.78;;;467.38;;
21213;SDS011;10764;50.850;2.904;2023-01-09T22:46:07;968.78;;;661.03;;
21213;SDS011;10764;50.850;2.904;2023-01-09T22:48:37;931.65;;;480.73;;
21213;SDS011;10764;50.850;2.904;2023-01-09T22:51:05;955.80;;;587.10;;
21213;SDS011;10764;50.850;2.904;2023-01-09T22:53:36;934.97;;;497.37;;
21213;SDS011;10764;50.850;2.904;2023-01-09T22:56:04;915.00;;;424.58;;
21213;SDS011;10764;50.850;2.904;2023-01-09T22:58:35;919.85;;;449.02;;
21213;SDS011;10764;50.850;2.904;2023-01-09T23:01:02;949.33;;;548.08;;
21213;SDS011;10764;50.850;2.904;2023-01-09T23:03:29;956.55;;;590.40;;
21213;SDS011;10764;50.850;2.904;2023-01-09T23:06:04;944.47;;;524.63;;
21213;SDS011;10764;50.850;2.904;2023-01-09T23:08:33;950.75;;;571.33;;
21213;SDS011;10764;50.850;2.904;2023-01-09T23:11:00;963.60;;;628.13;;
21213;SDS011;10764;50.850;2.904;2023-01-09T23:13:28;939.63;;;513.47;;
21213;SDS011;10764;50.850;2.904;2023-01-09T23:15:55;928.65;;;463.38;;
21213;SDS011;10764;50.850;2.904;2023-01-09T23:18:22;954.60;;;569.70;;
21213;SDS011;10764;50.850;2.904;2023-01-09T23:21:00;954.55;;;559.92;;
21213;SDS011;10764;50.850;2.904;2023-01-09T23:23:29;978.83;;;589.80;;
21213;SDS011;10764;50.850;2.904;2023-01-09T23:25:58;1179.43;;;999.90;;
21213;SDS011;10764;50.850;2.904;2023-01-09T23:28:28;1172.72;;;999.90;;
21213;SDS011;10764;50.850;2.904;2023-01-09T23:30:55;1171.47;;;999.90;;
21213;SDS011;10764;50.850;2.904;2023-01-09T23:33:23;1185.30;;;999.90;;
21213;SDS011;10764;50.850;2.904;2023-01-09T23:35:50;1127.22;;;990.05;;
21213;SDS011;10764;50.850;2.904;2023-01-09T23:38:17;1139.43;;;993.72;;
21213;SDS011;10764;50.850;2.904;2023-01-09T23:40:43;1146.55;;;999.90;;
21213;SDS011;10764;50.850;2.904;2023-01-09T23:43:11;1162.37;;;999.90;;
21213;SDS011;10764;50.850;2.904;2023-01-09T23:45:40;1171.00;;;999.90;;
21213;SDS011;10764;50.850;2.904;2023-01-09T23:48:11;1159.40;;;999.90;;
21213;SDS011;10764;50.850;2.904;2023-01-09T23:50:42;1256.45;;;999.90;;
21213;SDS011;10764;50.850;2.904;2023-01-09T23:53:13;904.20;;;414.80;;
21213;SDS011;10764;50.850;2.904;2023-01-09T23:55:41;911.70;;;419.05;;
21213;SDS011;10764;50.850;2.904;2023-01-09T23:58:08;958.05;;;592.28;;
